Time;durP1;ratioP1;P1;durP2;ratioP2;P2;SDS_P1;SDS_P2;PMS_P1;PMS_P2;Temp;Humidity;BMP_temperature;BMP_pressure;BME280_temperature;BME280_humidity;BME280_pressure;Samples;Min_cycle;Max_cycle;Signal;HPM_P1;HPM_P2
2022/08/03 00:02:18;;;;;;;2.60;2.40;;;23.30;44.00;;;24.25;37.54;97680.59;5024485;28;20046;-50
2022/08/03 00:04:47;;;;;;;3.90;2.90;;;23.30;43.80;;;24.23;37.70;97680.03;5026898;28;20061;-50
2022/08/03 00:07:15;;;;;;;3.33;2.28;;;23.20;44.10;;;24.19;37.53;97687.03;5025976;28;20357;-46
2022/08/03 00:09:43;;;;;;;3.67;2.60;;;23.20;44.10;;;24.19;37.48;97681.59;5026471;28;20061;-49
2022/08/03 00:12:11;;;;;;;3.67;2.50;;;23.20;43.90;;;24.17;37.79;97683.75;5025601;28;20058;-47
2022/08/03 00:14:40;;;;;;;3.08;2.70;;;23.20;44.00;;;24.14;37.95;97685.06;5056998;28;20053;-46
2022/08/03 00:17:08;;;;;;;2.58;2.38;;;23.20;44.30;;;24.11;37.81;97682.84;5026494;28;20229;-47
2022/08/03 00:19:36;;;;;;;7.82;3.47;;;23.10;44.50;;;24.09;38.09;97681.44;5026813;28;20052;-46
2022/08/03 00:22:04;;;;;;;3.22;2.60;;;23.10;44.60;;;24.05;38.25;97678.38;5026545;28;20063;-48
2022/08/03 00:24:32;;;;;;;3.28;2.40;;;23.10;44.70;;;24.01;38.26;97674.53;5026488;28;20052;-47
2022/08/03 00:26:59;;;;;;;2.70;2.50;;;23.10;44.70;;;23.99;38.10;97671.22;5026690;28;20057;-49
2022/08/03 00:29:27;;;;;;;3.08;2.70;;;23.10;44.70;;;23.98;38.22;97675.84;5036992;28;20057;-46
2022/08/03 00:31:55;;;;;;;2.85;2.30;;;23.10;44.70;;;23.96;38.20;97675.28;5026184;28;20045;-49
2022/08/03 00:34:27;;;;;;;3.03;2.40;;;23.00;44.60;;;23.96;38.10;97669.84;5026038;28;20052;-48
2022/08/03 00:37:15;;;;;;;3.00;2.67;;;23.00;44.50;;;23.95;38.16;97675.50;5024671;28;20061;-47
2022/08/03 00:39:45;;;;;;;2.63;2.42;;;23.00;44.60;;;23.94;38.15;97671.13;5027051;28;20059;-49
2022/08/03 00:42:13;;;;;;;3.65;2.33;;;23.00;44.40;;;23.91;38.52;97672.47;5024805;28;20078;-47
2022/08/03 00:44:43;;;;;;;3.10;2.33;;;23.00;44.80;;;23.89;38.45;97668.34;5026162;28;20057;-49
2022/08/03 00:47:11;;;;;;;2.53;2.33;;;23.00;45.20;;;23.85;38.58;97670.72;5024748;28;20050;-46
2022/08/03 00:49:40;;;;;;;2.85;2.53;;;22.90;45.50;;;23.82;38.41;97673.94;5026538;28;20053;-49
2022/08/03 00:52:09;;;;;;;3.17;2.80;;;22.80;45.30;;;23.82;38.64;97664.97;5024552;28;20054;-46
2022/08/03 00:54:39;;;;;;;3.20;2.90;;;22.80;45.40;;;23.77;38.77;97666.50;5026196;28;20053;-45
2022/08/03 00:57:07;;;;;;;8.90;3.60;;;22.80;45.70;;;23.73;38.99;97661.78;5026034;28;20048;-46
2022/08/03 00:59:37;;;;;;;2.78;2.58;;;22.70;46.00;;;23.70;39.04;97660.38;5025871;28;20542;-46
2022/08/03 01:02:05;;;;;;;3.08;2.78;;;22.70;46.10;;;23.65;39.01;97657.59;5028628;28;20073;-48
2022/08/03 01:04:33;;;;;;;2.97;2.55;;;22.70;45.90;;;23.63;39.02;97659.72;5029976;28;20056;-50
2022/08/03 01:07:16;;;;;;;3.58;2.60;;;22.60;45.90;;;23.63;39.05;97656.16;5029725;28;20053;-48
2022/08/03 01:10:09;;;;;;;3.08;2.58;;;22.60;46.80;;;23.58;39.19;97662.34;5027889;28;20061;-47
2022/08/03 01:13:23;;;;;;;2.85;2.20;;;22.60;47.50;;;23.56;39.28;97656.34;5028548;28;20115;-47
2022/08/03 01:16:29;;;;;;;2.72;2.15;;;22.60;47.00;;;23.56;39.16;97659.88;5018763;28;20057;-47
2022/08/03 01:19:29;;;;;;;3.10;2.70;;;22.60;47.30;;;23.54;39.29;97666.63;5028460;28;20049;-47
2022/08/03 01:22:29;;;;;;;2.90;2.70;;;22.50;46.50;;;23.52;38.92;97657.91;5028033;28;20377;-48
2022/08/03 01:25:33;;;;;;;2.90;2.60;;;22.50;46.60;;;23.51;39.18;97656.25;5028343;28;20053;-48
2022/08/03 01:29:02;;;;;;;3.45;3.15;;;22.40;47.40;;;23.46;39.17;97654.25;5029108;28;20061;-46
2022/08/03 01:32:01;;;;;;;3.45;2.67;;;22.50;47.40;;;23.41;39.50;97651.44;5027927;28;20351;-46
2022/08/03 01:35:03;;;;;;;4.75;3.28;;;22.40;47.80;;;23.38;39.50;97655.47;5028373;28;20098;-47
2022/08/03 01:38:05;;;;;;;3.75;3.40;;;22.30;47.30;;;23.34;39.40;97646.19;5028012;28;20049;-47
2022/08/03 01:40:38;;;;;;;4.30;3.05;;;22.30;47.20;;;23.31;39.81;97640.41;5027513;28;20351;-46
2022/08/03 01:43:09;;;;;;;3.35;3.05;;;22.30;47.20;;;23.30;40.01;97642.31;5028132;28;20061;-46
2022/08/03 01:45:38;;;;;;;3.08;2.67;;;22.30;47.30;;;23.29;39.89;97631.66;5029640;28;20049;-46
2022/08/03 01:48:07;;;;;;;3.00;2.70;;;22.30;47.10;;;23.27;40.10;97629.19;5027632;28;20053;-48
2022/08/03 01:50:35;;;;;;;2.85;2.55;;;22.30;47.20;;;23.24;40.22;97629.66;5027433;28;20061;-47
2022/08/03 01:53:06;;;;;;;4.63;3.63;;;22.30;47.30;;;23.23;40.25;97638.91;5028176;28;20053;-48
2022/08/03 01:55:36;;;;;;;4.65;3.50;;;22.30;47.40;;;23.21;40.23;97632.88;5027648;28;20058;-46
2022/08/03 01:58:07;;;;;;;4.10;3.05;;;22.30;47.60;;;23.18;40.43;97623.31;5026173;28;20343;-49
2022/08/03 02:00:37;;;;;;;3.72;2.90;;;22.30;47.60;;;23.18;40.17;97625.22;5025919;28;20053;-46
2022/08/03 02:03:06;;;;;;;6.60;3.08;;;22.20;47.70;;;23.14;40.49;97630.31;5026618;28;20083;-46
2022/08/03 02:05:35;;;;;;;3.67;2.55;;;22.20;47.90;;;23.11;40.36;97633.53;5028062;28;20064;-48
2022/08/03 02:08:06;;;;;;;5.75;3.10;;;22.20;47.70;;;23.11;40.37;97627.25;5027960;28;20053;-47
2022/08/03 02:10:36;;;;;;;3.67;2.63;;;22.10;47.80;;;23.10;40.79;97628.31;5027534;28;20057;-46
2022/08/03 02:13:07;;;;;;;4.15;3.15;;;22.10;48.00;;;23.07;40.73;97629.63;5025632;28;20060;-46
2022/08/03 02:15:37;;;;;;;5.15;2.90;;;22.10;48.00;;;23.05;40.86;97631.78;5026873;28;20414;-46
2022/08/03 02:18:08;;;;;;;3.83;2.55;;;22.10;48.00;;;23.02;40.76;97626.78;5026835;28;20231;-47
2022/08/03 02:20:38;;;;;;;3.35;2.60;;;22.00;48.10;;;22.99;40.74;97632.69;5026268;28;20059;-48
2022/08/03 02:23:07;;;;;;;3.20;2.60;;;22.00;48.20;;;22.97;40.94;97629.38;5044789;28;20061;-46
2022/08/03 02:25:46;;;;;;;4.03;2.65;;;22.00;49.10;;;22.96;40.85;97625.84;5026650;28;20045;-50
2022/08/03 02:28:21;;;;;;;4.40;2.70;;;22.00;48.60;;;22.97;40.63;97626.69;5026105;28;20052;-47
2022/08/03 02:30:54;;;;;;;4.45;2.95;;;22.00;48.50;;;22.96;40.85;97630.47;5026722;28;20057;-46
2022/08/03 02:33:35;;;;;;;3.28;2.88;;;22.00;48.70;;;22.93;40.71;97631.75;5026486;28;20267;-47
2022/08/03 02:36:05;;;;;;;3.03;2.75;;;22.00;48.80;;;22.89;40.83;97627.88;5026882;28;20250;-48
2022/08/03 02:38:41;;;;;;;3.63;2.85;;;21.90;48.70;;;22.84;40.94;97633.22;5026277;28;20045;-46
2022/08/03 02:41:16;;;;;;;3.65;3.08;;;21.80;49.10;;;22.83;41.00;97631.56;5027069;28;20507;-47
2022/08/03 02:43:50;;;;;;;3.55;2.78;;;21.80;49.20;;;22.80;41.48;97630.16;5027917;28;20056;-50
2022/08/03 02:46:38;;;;;;;7.30;4.07;;;21.80;48.90;;;22.80;41.48;97627.44;5026094;28;20053;-46
2022/08/03 02:49:08;;;;;;;3.45;3.10;;;21.80;49.00;;;22.78;41.28;97616.00;5027255;28;20046;-48
2022/08/03 02:51:57;;;;;;;3.70;3.10;;;21.80;49.10;;;22.76;41.68;97620.84;5026354;28;20057;-47
2022/08/03 02:54:28;;;;;;;6.53;2.80;;;21.70;49.40;;;22.72;41.35;97622.41;5026052;28;20071;-46
2022/08/03 02:56:57;;;;;;;4.78;3.33;;;21.70;49.50;;;22.69;42.00;97624.75;5026826;28;20049;-47
2022/08/03 02:59:30;;;;;;;3.35;2.95;;;21.70;49.80;;;22.70;41.76;97623.69;5026117;28;20064;-45
2022/08/03 03:02:00;;;;;;;6.60;3.35;;;21.70;49.40;;;22.67;41.55;97616.88;5025038;28;20262;-45
2022/08/03 03:04:30;;;;;;;4.20;3.75;;;21.70;49.40;;;22.65;41.58;97613.56;5043285;28;20064;-47
2022/08/03 03:07:00;;;;;;;4.55;3.05;;;21.70;49.40;;;22.65;41.72;97616.28;5026945;28;20061;-47
2022/08/03 03:09:33;;;;;;;4.03;3.15;;;21.70;49.30;;;22.63;41.81;97623.84;5043197;28;20057;-49
2022/08/03 03:12:11;;;;;;;4.20;3.80;;;21.70;49.70;;;22.60;41.75;97624.31;5026483;28;20059;-47
2022/08/03 03:14:39;;;;;;;4.07;2.90;;;21.60;49.70;;;22.57;41.80;97625.63;5027059;28;20064;-47
2022/08/03 03:17:10;;;;;;;4.07;3.25;;;21.60;49.70;;;22.55;42.18;97616.06;5027419;28;20060;-47
2022/08/03 03:19:40;;;;;;;4.43;3.28;;;21.70;49.70;;;22.55;41.84;97618.78;5023882;28;20057;-49
2022/08/03 03:22:08;;;;;;;6.72;3.67;;;21.60;49.50;;;22.55;41.91;97618.78;5024972;28;20343;-47
2022/08/03 03:24:38;;;;;;;4.60;2.85;;;21.60;49.60;;;22.54;41.83;97615.22;5027027;28;20059;-48
2022/08/03 03:27:07;;;;;;;3.28;2.97;;;21.60;49.70;;;22.54;42.12;97620.66;5025961;28;20351;-47
2022/08/03 03:29:36;;;;;;;3.10;2.67;;;21.60;49.70;;;22.53;42.14;97618.19;5021680;28;20056;-49
2022/08/03 03:32:06;;;;;;;3.30;3.00;;;21.50;49.70;;;22.52;42.12;97613.81;5026749;28;20063;-49
2022/08/03 03:34:36;;;;;;;3.50;3.05;;;21.50;49.80;;;22.48;42.21;97609.94;5027146;28;20251;-49
2022/08/03 03:37:04;;;;;;;3.17;2.88;;;21.50;50.10;;;22.46;42.44;97617.50;5025715;28;20056;-49
2022/08/03 03:39:32;;;;;;;3.33;2.70;;;21.50;50.10;;;22.44;42.21;97612.31;5026449;28;20064;-46
2022/08/03 03:42:00;;;;;;;4.80;2.90;;;21.50;49.90;;;22.39;42.14;97613.03;5027044;28;20046;-45
2022/08/03 03:44:29;;;;;;;3.63;3.10;;;21.40;50.10;;;22.34;42.09;97615.63;5026336;28;20053;-47
2022/08/03 03:46:57;;;;;;;5.82;3.30;;;21.40;50.10;;;22.32;42.56;97615.03;5026289;28;20045;-46
2022/08/03 03:49:26;;;;;;;3.67;2.95;;;21.40;50.10;;;22.33;41.98;97610.44;5026036;28;20055;-47
2022/08/03 03:51:54;;;;;;;3.85;2.70;;;21.40;50.00;;;22.32;42.06;97611.50;5026235;28;20362;-46
2022/08/03 03:54:22;;;;;;;4.30;2.70;;;21.40;50.00;;;22.30;41.99;97617.16;5058892;28;20053;-47
2022/08/03 03:56:56;;;;;;;4.65;3.28;;;21.40;49.80;;;22.29;42.42;97617.38;5024376;28;20049;-49
2022/08/03 03:59:24;;;;;;;3.00;2.70;;;21.40;49.70;;;22.30;41.93;97617.16;5025759;28;20065;-46
2022/08/03 04:01:52;;;;;;;5.65;3.53;;;21.40;49.60;;;22.32;42.13;97615.03;5027252;28;20057;-48
2022/08/03 04:13:11;;;;;;;5.60;3.20;;;21.40;49.80;;;22.33;41.97;97613.13;5023384;28;20183;-46
2022/08/03 04:15:40;;;;;;;5.38;3.75;;;21.40;49.90;;;22.30;42.27;97617.16;5026507;28;20060;-48
2022/08/03 04:18:12;;;;;;;4.75;2.90;;;21.30;49.80;;;22.29;42.24;97612.78;5025968;28;20347;-50
2022/08/03 04:20:45;;;;;;;4.63;3.22;;;21.30;50.10;;;22.30;42.48;97621.78;5025855;28;20053;-50
2022/08/03 04:23:19;;;;;;;6.93;3.20;;;21.40;49.90;;;22.29;42.40;97620.09;5026016;28;20053;-47
2022/08/03 04:25:50;;;;;;;4.50;2.85;;;21.30;49.90;;;22.28;42.12;97623.91;5025211;28;20053;-50
2022/08/03 04:28:20;;;;;;;4.15;3.58;;;21.30;50.20;;;22.25;42.21;97625.16;5041312;28;20057;-46
2022/08/03 04:31:00;;;;;;;3.97;3.03;;;21.30;50.30;;;22.27;42.30;97627.66;5026188;28;20045;-47
2022/08/03 04:33:31;;;;;;;4.88;3.30;;;21.30;50.40;;;22.26;42.97;97631.44;5026640;28;20055;-46
2022/08/03 04:36:03;;;;;;;3.90;3.20;;;21.30;50.60;;;22.24;43.15;97628.94;5027579;28;20515;-48
2022/08/03 04:38:37;;;;;;;5.07;3.45;;;21.30;51.10;;;22.27;43.27;97638.50;5028449;28;20049;-49
2022/08/03 04:41:07;;;;;;;4.53;3.80;;;21.40;51.10;;;22.31;43.17;97634.25;5028931;28;20041;-49
2022/08/03 04:43:39;;;;;;;5.40;3.67;;;21.40;51.00;;;22.35;43.06;97641.69;5027705;28;20065;-48
2022/08/03 04:46:08;;;;;;;4.30;3.47;;;21.50;51.10;;;22.39;43.37;97637.44;5030528;28;20049;-48
2022/08/03 04:48:36;;;;;;;8.98;5.05;;;21.50;51.00;;;22.39;43.08;97634.72;5028181;28;20045;-48
2022/08/03 04:51:05;;;;;;;5.35;3.38;;;21.50;51.20;;;22.39;43.27;97640.16;5027033;28;20053;-49
2022/08/03 04:53:33;;;;;;;4.82;3.53;;;21.50;51.20;;;22.41;43.22;97637.19;5027474;28;20045;-48
2022/08/03 04:56:05;;;;;;;5.05;3.45;;;21.60;51.10;;;22.43;43.53;97632.38;5028818;28;20060;-48
2022/08/03 04:58:33;;;;;;;3.73;2.93;;;21.60;51.30;;;22.44;42.98;97644.84;5029814;28;20054;-42
2022/08/03 05:01:01;;;;;;;4.15;3.22;;;21.50;51.10;;;22.42;43.19;97639.66;5027733;28;20319;-42
2022/08/03 05:03:30;;;;;;;4.60;3.20;;;21.50;51.30;;;22.45;43.17;97641.09;5028924;28;20103;-42
2022/08/03 05:05:58;;;;;;;4.30;3.03;;;21.60;51.20;;;22.48;43.54;97637.88;5029631;28;20060;-43
2022/08/03 05:08:37;;;;;;;3.85;3.00;;;21.60;51.20;;;22.51;43.32;97642.03;5027213;28;20209;-42
2022/08/03 05:11:15;;;;;;;3.72;3.05;;;21.70;51.50;;;22.53;43.76;97642.63;5029923;28;20456;-42
2022/08/03 05:13:44;;;;;;;4.15;3.22;;;21.70;51.60;;;22.56;44.02;97639.41;5028375;28;20456;-42
2022/08/03 05:16:13;;;;;;;4.05;3.10;;;21.70;51.90;;;22.60;43.83;97643.28;5028510;28;20049;-42
2022/08/03 05:18:42;;;;;;;5.00;2.88;;;21.80;51.70;;;22.64;43.81;97647.16;5029692;28;20470;-42
2022/08/03 05:21:12;;;;;;;5.65;3.28;;;21.80;51.80;;;22.67;43.74;97652.13;5027904;28;20083;-42
2022/08/03 05:23:40;;;;;;;6.32;3.72;;;21.90;51.80;;;22.73;44.31;97651.16;5028049;28;20049;-42
2022/08/03 05:26:10;;;;;;;6.03;4.05;;;22.00;52.20;;;22.77;44.02;97655.06;5029122;28;20041;-42
2022/08/03 05:28:38;;;;;;;8.02;4.82;;;22.00;52.10;;;22.79;44.27;97652.94;5029110;28;20049;-43
2022/08/03 05:31:18;;;;;;;3.75;3.45;;;22.10;52.30;;;22.83;44.50;97653.28;5028472;28;20057;-42
2022/08/03 05:33:47;;;;;;;6.07;4.78;;;22.10;52.30;;;22.87;44.57;97651.72;5028837;28;20051;-42
2022/08/03 05:36:15;;;;;;;5.75;4.20;;;22.20;52.20;;;22.88;44.64;97652.56;5028844;28;20055;-42
2022/08/03 05:38:43;;;;;;;6.35;4.43;;;22.20;52.20;;;22.90;44.36;97658.59;5028139;28;20282;-44
2022/08/03 05:41:11;;;;;;;6.95;4.90;;;22.30;52.30;;;22.94;44.24;97657.03;5029621;28;20237;-42
2022/08/03 05:43:52;;;;;;;6.05;4.63;;;22.30;52.30;;;23.00;44.50;97656.88;5028315;28;20057;-41
2022/08/03 05:46:22;;;;;;;7.20;5.18;;;22.40;52.20;;;23.05;44.25;97663.50;5028803;28;20045;-41
2022/08/03 05:48:50;;;;;;;4.00;3.55;;;22.40;52.00;;;23.09;44.44;97659.25;5028404;28;20050;-41
2022/08/03 05:51:19;;;;;;;6.30;4.72;;;22.40;52.70;;;23.13;44.31;97655.00;5029249;28;20049;-41
2022/08/03 05:53:47;;;;;;;5.20;4.47;;;22.50;52.20;;;23.17;44.06;97656.97;5027035;28;20053;-41
2022/08/03 05:56:14;;;;;;;9.90;5.93;;;22.50;52.10;;;23.22;44.21;97661.69;5028217;28;20052;-42
2022/08/03 05:58:45;;;;;;;5.20;3.85;;;22.50;51.80;;;23.26;44.14;97651.16;5028024;28;20052;-41
2022/08/03 06:01:15;;;;;;;5.35;4.32;;;22.60;51.70;;;23.29;44.32;97651.50;5029086;28;20049;-41
2022/08/03 06:03:45;;;;;;;5.32;4.00;;;22.70;52.00;;;23.35;43.89;97661.38;5028505;28;20060;-42
2022/08/03 06:06:13;;;;;;;5.80;4.03;;;22.70;51.60;;;23.41;44.07;97654.16;5026060;28;20235;-41
2022/08/03 06:08:43;;;;;;;6.28;3.95;;;22.80;51.60;;;23.46;43.89;97654.25;5027565;28;20049;-42
2022/08/03 06:11:11;;;;;;;5.25;4.13;;;22.80;51.60;;;23.52;43.72;97656.00;5028009;28;20052;-41
2022/08/03 06:13:40;;;;;;;4.60;3.83;;;22.90;51.40;;;23.57;44.27;97647.09;5028733;28;20060;-42
2022/08/03 06:16:08;;;;;;;5.22;3.80;;;23.00;51.70;;;23.62;43.88;97651.81;5027677;28;20053;-42
2022/08/03 06:18:39;;;;;;;6.13;3.88;;;23.10;51.60;;;23.66;44.10;97659.22;5028458;28;20049;-41
2022/08/03 06:21:08;;;;;;;4.35;3.88;;;23.10;51.50;;;23.71;43.91;97659.31;5027428;28;20228;-41
2022/08/03 06:23:44;;;;;;;5.32;4.00;;;23.20;51.20;;;23.79;43.92;97658.13;5028943;28;20069;-42
2022/08/03 06:26:24;;;;;;;3.83;3.42;;;23.20;51.10;;;23.86;44.00;97660.66;5029193;28;20071;-42
2022/08/03 06:28:53;;;;;;;4.30;3.75;;;23.40;51.40;;;23.91;44.03;97655.34;5027394;28;20057;-42
2022/08/03 06:31:24;;;;;;;4.15;3.75;;;23.40;51.20;;;23.97;43.91;97657.06;5024547;28;20053;-42
2022/08/03 06:34:03;;;;;;;6.28;4.57;;;23.40;51.10;;;24.03;43.94;97660.69;5025972;28;20063;-42
2022/08/03 06:36:51;;;;;;;6.05;3.60;;;23.50;51.10;;;24.09;43.69;97656.97;5026701;28;20419;-43
2022/08/03 06:39:21;;;;;;;6.35;4.00;;;23.60;50.90;;;24.13;43.52;97663.56;5028038;28;20050;-42
2022/08/03 06:41:52;;;;;;;6.43;4.28;;;23.60;50.60;;;24.16;43.60;97658.44;5027520;28;20059;-42
2022/08/03 06:44:20;;;;;;;5.13;3.90;;;23.70;50.80;;;24.21;43.47;97660.41;5027457;28;20049;-43
2022/08/03 06:46:48;;;;;;;7.38;3.33;;;23.70;50.60;;;24.26;43.39;97657.78;5058521;28;20065;-41
2022/08/03 06:49:15;;;;;;;5.90;3.83;;;23.70;50.40;;;24.31;43.58;97662.47;5028676;28;20060;-42
2022/08/03 06:51:43;;;;;;;5.57;4.15;;;23.80;50.60;;;24.37;43.60;97666.94;5027889;28;20049;-42
2022/08/03 06:54:31;;;;;;;8.60;3.33;;;23.90;50.80;;;24.45;43.39;97665.69;5028812;28;20057;-43
2022/08/03 06:57:00;;;;;;;5.70;4.30;;;23.90;50.50;;;24.50;43.41;97668.44;5026712;28;20049;-42
2022/08/03 06:59:28;;;;;;;7.63;3.83;;;24.00;50.50;;;24.55;43.58;97669.38;5027090;28;20232;-42
2022/08/03 07:02:19;;;;;;;8.25;4.15;;;24.00;50.60;;;24.63;43.54;97668.13;5027082;28;20168;-42
2022/08/03 07:04:48;;;;;;;7.72;3.85;;;24.10;50.50;;;24.70;43.32;97671.50;5025883;28;20282;-42
2022/08/03 07:07:18;;;;;;;8.02;3.63;;;24.20;50.40;;;24.75;43.54;97679.72;5026323;28;20067;-42
2022/08/03 07:09:47;;;;;;;10.07;3.72;;;24.20;50.50;;;24.80;43.55;97673.53;5026610;28;20049;-42
2022/08/03 07:12:26;;;;;;;11.55;4.50;;;24.30;50.40;;;24.85;43.46;97668.13;5027014;28;20071;-42
2022/08/03 07:14:55;;;;;;;4.20;3.22;;;24.40;50.70;;;24.91;43.55;97669.03;5028323;28;20053;-42
2022/08/03 07:17:30;;;;;;;5.70;3.25;;;24.40;50.60;;;24.98;43.39;97674.31;5026210;28;20079;-42
2022/08/03 07:20:00;;;;;;;4.18;3.03;;;24.50;50.70;;;25.04;43.18;97676.81;5025592;28;20061;-41
2022/08/03 07:22:28;;;;;;;7.88;3.20;;;24.60;50.20;;;25.08;43.41;97672.50;5027336;28;20235;-43
2022/08/03 07:24:56;;;;;;;3.45;3.13;;;24.60;50.30;;;25.14;43.46;97670.66;5026750;28;20067;-44
2022/08/03 07:27:25;;;;;;;5.05;3.10;;;24.70;50.30;;;25.22;43.22;97674.84;5026066;28;20065;-43
2022/08/03 07:29:54;;;;;;;3.20;2.90;;;24.80;50.30;;;25.28;42.93;97669.25;5025835;28;20072;-43
2022/08/03 07:32:23;;;;;;;5.32;3.30;;;24.80;50.70;;;25.35;43.07;97674.47;5026523;28;20355;-44
2022/08/03 07:34:51;;;;;;;3.53;3.08;;;24.90;50.00;;;25.43;42.79;97665.03;5025863;28;20045;-43
2022/08/03 07:37:25;;;;;;;4.10;3.70;;;25.00;49.80;;;25.50;42.68;97671.09;5026101;28;20071;-43
2022/08/03 07:39:52;;;;;;;3.78;2.75;;;25.10;49.30;;;25.56;42.71;97672.78;5024867;28;20045;-44
2022/08/03 07:42:22;;;;;;;3.42;3.10;;;25.10;49.40;;;25.61;43.05;97670.13;5025602;28;20045;-44
2022/08/03 07:44:49;;;;;;;3.17;2.80;;;25.20;49.70;;;25.68;42.38;97676.19;5025594;28;20059;-44
2022/08/03 07:54:11;;;;;;;3.38;3.08;;;27.40;46.40;;;26.81;40.59;97671.63;5146456;27;20582;-56
2022/08/03 07:56:39;;;;;;;5.30;3.00;;;26.70;46.90;;;26.96;39.75;97670.84;5108824;28;20049;-58
2022/08/03 07:59:08;;;;;;;2.78;2.58;;;26.10;47.60;;;27.19;39.27;97671.47;5124611;27;20043;-56
2022/08/03 08:01:37;;;;;;;4.00;2.92;;;25.80;48.00;;;27.37;38.63;97671.00;5130885;27;20042;-58
2022/08/03 08:04:05;;;;;;;4.18;2.80;;;25.60;48.50;;;27.50;38.37;97675.97;5139024;27;20116;-57
2022/08/03 08:06:33;;;;;;;3.92;2.25;;;25.50;48.70;;;27.60;38.03;97661.50;5139343;27;20058;-57
2022/08/03 08:09:01;;;;;;;3.70;2.90;;;25.50;48.20;;;27.69;37.84;97664.53;5122230;27;20059;-56
2022/08/03 08:11:29;;;;;;;3.63;2.30;;;25.50;48.90;;;27.79;37.38;97666.44;5121803;27;20048;-57
2022/08/03 08:13:57;;;;;;;5.00;2.80;;;25.50;48.30;;;27.84;37.84;97660.97;5140071;27;20244;-58
2022/08/03 08:16:25;;;;;;;3.05;2.72;;;25.50;48.70;;;27.93;37.42;97661.28;5139275;27;20432;-58
2022/08/03 08:18:52;;;;;;;6.68;2.72;;;25.60;48.40;;;28.01;36.73;97663.47;5135678;27;20240;-56
2022/08/03 08:21:20;;;;;;;2.80;2.60;;;25.70;47.80;;;28.07;36.46;97654.16;5160867;27;20247;-58
2022/08/03 08:23:48;;;;;;;4.20;2.28;;;25.70;47.30;;;28.12;37.06;97665.13;5160751;27;20043;-56
2022/08/03 08:26:24;;;;;;;2.60;2.40;;;25.80;47.50;;;28.18;36.28;97655.81;5160960;27;20053;-58
2022/08/03 08:28:52;;;;;;;2.85;2.25;;;25.80;46.80;;;28.24;36.38;97660.16;5160184;27;20266;-56
2022/08/03 08:31:20;;;;;;;6.45;2.78;;;25.90;46.50;;;28.27;36.06;97656.06;5160186;27;20050;-55
2022/08/03 08:33:47;;;;;;;2.90;2.47;;;25.90;46.50;;;28.32;36.04;97657.97;5159903;27;20159;-57
2022/08/03 08:36:33;;;;;;;3.78;2.90;;;25.90;46.50;;;28.40;36.48;97661.00;5159602;27;20224;-56
2022/08/03 08:39:01;;;;;;;3.78;2.50;;;26.00;46.90;;;28.45;36.10;97658.22;5158514;27;20047;-55
2022/08/03 08:41:32;;;;;;;2.72;2.20;;;26.10;46.50;;;28.48;36.11;97654.94;5160703;27;20333;-52
2022/08/03 08:44:01;;;;;;;3.35;2.88;;;26.10;46.50;;;28.54;35.46;97654.94;5142642;27;20089;-52
2022/08/03 08:46:32;;;;;;;2.42;2.15;;;26.20;45.90;;;28.59;35.03;97658.50;5159973;27;20055;-54
2022/08/03 08:49:00;;;;;;;3.42;2.40;;;26.20;45.10;;;28.64;35.00;97657.69;5160275;27;20053;-54
2022/08/03 08:51:36;;;;;;;3.92;2.63;;;26.20;45.10;;;28.66;34.29;97655.47;5142302;27;20047;-56
2022/08/03 08:54:25;;;;;;;6.45;2.58;;;26.30;44.30;;;28.75;34.58;97653.81;5159235;27;20043;-54
2022/08/03 08:57:00;;;;;;;2.38;2.15;;;26.40;44.30;;;28.81;34.52;97654.63;5160225;27;20249;-56
2022/08/03 08:59:35;;;;;;;5.25;2.55;;;26.40;44.00;;;28.89;34.34;97647.72;5141503;27;20049;-54
2022/08/03 09:02:16;;;;;;;2.50;2.30;;;26.50;43.70;;;28.98;34.00;97651.50;5156469;27;20039;-55
2022/08/03 09:04:47;;;;;;;2.50;2.30;;;26.60;43.60;;;29.03;34.21;97648.75;5146090;27;20329;-55
2022/08/03 09:07:16;;;;;;;2.67;2.22;;;26.70;43.80;;;29.12;33.92;97651.72;5140524;27;20055;-55
2022/08/03 09:09:56;;;;;;;2.50;2.10;;;26.80;42.90;;;29.19;33.02;97655.84;5121242;27;20064;-54
2022/08/03 09:12:45;;;;;;;3.28;2.30;;;26.90;42.00;;;29.30;33.44;97653.06;5137669;27;20046;-53
2022/08/03 09:15:19;;;;;;;2.88;2.58;;;26.90;41.90;;;29.36;33.40;97651.91;5137353;27;20050;-56
2022/08/03 09:20:09;;;;;;;3.47;2.03;;;27.00;41.00;;;29.43;33.02;97653.25;5130651;27;20581;-55
2022/08/03 09:23:09;;;;;;;2.47;2.28;;;27.10;41.60;;;29.48;32.95;97649.63;5108605;28;20056;-57
2022/08/03 09:26:00;;;;;;;3.15;2.30;;;27.10;41.00;;;29.53;32.67;97652.34;5109347;28;20056;-53
2022/08/03 09:28:34;;;;;;;2.65;2.20;;;27.10;42.00;;;29.56;32.80;97653.72;5108071;28;20066;-56
2022/08/03 09:31:40;;;;;;;2.50;2.30;;;27.20;41.20;;;29.63;32.26;97645.97;5107450;28;20313;-55
2022/08/03 09:34:15;;;;;;;2.60;2.28;;;27.30;40.10;;;29.63;32.28;97640.50;5108423;28;20056;-54
2022/08/03 09:37:25;;;;;;;3.70;2.42;;;27.30;39.70;;;29.59;32.52;97636.69;5136500;27;20153;-55
2022/08/03 09:40:35;;;;;;;5.13;2.15;;;27.40;41.20;;;29.75;32.21;97637.44;5087285;28;20056;-53
2022/08/03 09:43:02;;;;;;;2.80;2.33;;;27.50;39.90;;;29.80;31.79;97638.22;5087161;28;20064;-52
2022/08/03 09:45:30;;;;;;;2.47;2.15;;;27.50;40.50;;;29.83;31.82;97639.56;5086124;28;20048;-55
2022/08/03 09:48:26;;;;;;;2.78;2.20;;;27.60;40.30;;;29.93;31.85;97638.66;5084449;28;20356;-52
2022/08/03 09:50:57;;;;;;;4.93;2.42;;;27.60;39.20;;;30.00;31.48;97636.41;5083523;28;20424;-55
2022/08/03 09:53:46;;;;;;;2.28;2.08;;;27.70;39.90;;;30.08;31.56;97638.53;5085155;28;20344;-60
2022/08/03 09:56:46;;;;;;;3.60;2.45;;;27.80;40.00;;;30.16;31.60;97637.06;5083005;28;20056;-60
2022/08/03 09:59:28;;;;;;;6.25;2.88;;;27.80;38.80;;;30.17;31.41;97635.97;5083995;28;20358;-60
2022/08/03 10:01:58;;;;;;;4.05;2.78;;;27.80;38.90;;;30.19;31.18;97634.56;5083007;28;20056;-60
2022/08/03 10:04:27;;;;;;;4.18;2.05;;;27.80;39.50;;;30.25;31.07;97629.06;5083694;28;20056;-60
2022/08/03 10:07:09;;;;;;;4.90;2.95;;;27.90;39.30;;;30.32;30.80;97641.34;5083375;28;20046;-59
2022/08/03 10:09:51;;;;;;;2.50;2.00;;;28.00;38.10;;;30.34;30.52;97630.91;5083368;28;20052;-61
2022/08/03 10:12:20;;;;;;;2.45;1.88;;;28.00;39.00;;;30.40;30.74;97628.94;5082422;28;20056;-61
2022/08/03 10:14:48;;;;;;;3.33;2.70;;;28.10;38.90;;;30.43;30.46;97614.59;5081981;28;20060;-62
2022/08/03 10:17:16;;;;;;;3.08;2.55;;;28.20;38.70;;;30.48;30.57;97620.03;5083458;28;20532;-61
2022/08/03 10:19:45;;;;;;;3.22;2.00;;;28.20;38.80;;;30.54;30.34;97612.56;5083606;28;20040;-60
2022/08/03 10:22:21;;;;;;;4.95;2.33;;;28.30;38.40;;;30.61;29.86;97618.50;5082592;28;20057;-60
2022/08/03 10:24:58;;;;;;;2.47;2.15;;;28.40;37.90;;;30.69;29.89;97609.66;5082147;28;20393;-60
2022/08/03 10:27:32;;;;;;;2.42;2.22;;;28.40;37.70;;;30.71;30.02;97604.69;5082358;28;20109;-60
2022/08/03 10:30:04;;;;;;;4.43;2.20;;;28.40;37.70;;;30.75;29.96;97600.22;5081370;28;20063;-60
2022/08/03 10:33:19;;;;;;;2.45;2.25;;;28.50;37.70;;;30.87;29.87;97608.03;5082867;28;20372;-61
2022/08/03 10:36:08;;;;;;;2.30;2.10;;;28.50;37.00;;;30.94;29.42;97602.22;5083617;28;20048;-60
2022/08/03 10:38:45;;;;;;;2.20;2.00;;;28.50;37.20;;;30.96;29.21;97605.47;5083375;28;20048;-60
2022/08/03 10:41:16;;;;;;;2.70;2.50;;;28.60;36.90;;;31.00;29.14;97603.81;5080381;28;20083;-60
2022/08/03 10:44:05;;;;;;;2.90;2.70;;;28.70;36.70;;;31.05;28.98;97597.41;5081880;28;20052;-60
2022/08/03 10:46:35;;;;;;;4.35;2.80;;;28.70;36.30;;;31.08;28.78;97602.28;5082995;28;20070;-60
2022/08/03 10:49:16;;;;;;;2.45;2.20;;;28.70;36.90;;;31.09;28.53;97599.25;5067942;28;20052;-60
2022/08/03 10:52:01;;;;;;;3.25;2.30;;;28.70;35.40;;;31.10;28.52;97595.41;5067675;28;20087;-60
2022/08/03 10:57:52;;;;;;;4.03;2.20;;;28.80;36.30;;;31.19;28.73;97581.78;5067267;28;20381;-60
2022/08/03 11:00:29;;;;;;;3.10;2.78;;;28.80;35.30;;;31.20;28.96;97584.25;5068830;28;20052;-60
2022/08/03 11:03:14;;;;;;;2.60;2.40;;;28.90;36.00;;;31.25;29.06;97580.59;5068933;28;20067;-60
2022/08/03 11:05:48;;;;;;;3.22;2.30;;;29.00;36.10;;;31.31;28.81;97579.44;5068852;28;20041;-60
2022/08/03 11:08:33;;;;;;;3.03;2.63;;;29.00;36.30;;;31.38;28.43;97579.06;5068327;28;20056;-60
2022/08/03 11:11:16;;;;;;;2.92;2.15;;;29.00;36.40;;;31.48;28.54;97580.84;5068909;28;20045;-60